sensor_id;sensor_type;location;lat;lon;timestamp;P1;durP1;ratioP1;P2;durP2;ratioP2
25129;SDS011;13308;50.860;13.664;2023-10-13T05:16:54;9.35;;;3.97;;
25129;SDS011;13308;50.860;13.664;2023-10-13T05:19:38;5.28;;;4.03;;
25129;SDS011;13308;50.860;13.664;2023-10-13T05:22:25;3.28;;;2.97;;
25129;SDS011;13308;50.860;13.664;2023-10-13T05:25:23;5.93;;;3.50;;
25129;SDS011;13308;50.860;13.664;2023-10-13T05:28:06;4.22;;;3.15;;
25129;SDS011;13308;50.860;13.664;2023-10-13T05:30:50;6.68;;;3.50;;
25129;SDS011;13308;50.860;13.664;2023-10-13T05:33:34;7.40;;;3.40;;
25129;SDS011;13308;50.860;13.664;2023-10-13T05:36:17;3.42;;;3.13;;
25129;SDS011;13308;50.860;13.664;2023-10-13T05:39:01;3.53;;;2.75;;
25129;SDS011;13308;50.860;13.664;2023-10-13T05:41:45;4.45;;;3.42;;
25129;SDS011;13308;50.860;13.664;2023-10-13T05:44:29;5.68;;;3.03;;
25129;SDS011;13308;50.860;13.664;2023-10-13T05:47:20;4.22;;;3.00;;
25129;SDS011;13308;50.860;13.664;2023-10-13T05:50:05;3.45;;;3.15;;
25129;SDS011;13308;50.860;13.664;2023-10-13T05:52:38;3.13;;;2.70;;
25129;SDS011;13308;50.860;13.664;2023-10-13T05:55:29;3.75;;;3.35;;
25129;SDS011;13308;50.860;13.664;2023-10-13T05:58:14;3.05;;;2.72;;
25129;SDS011;13308;50.860;13.664;2023-10-13T06:00:58;4.07;;;2.88;;
25129;SDS011;13308;50.860;13.664;2023-10-13T06:03:43;3.50;;;2.60;;
25129;SDS011;13308;50.860;13.664;2023-10-13T06:06:26;2.83;;;2.53;;
25129;SDS011;13308;50.860;13.664;2023-10-13T06:09:11;4.07;;;2.58;;
25129;SDS011;13308;50.860;13.664;2023-10-13T06:11:54;2.97;;;2.25;;
25129;SDS011;13308;50.860;13.664;2023-10-13T06:14:39;3.22;;;2.60;;
25129;SDS011;13308;50.860;13.664;2023-10-13T06:17:23;3.28;;;2.33;;
25129;SDS011;13308;50.860;13.664;2023-10-13T06:20:08;3.33;;;2.50;;
25129;SDS011;13308;50.860;13.664;2023-10-13T06:22:52;2.53;;;2.33;;
25129;SDS011;13308;50.860;13.664;2023-10-13T06:25:37;4.65;;;2.63;;
25129;SDS011;13308;50.860;13.664;2023-10-13T06:28:21;3.60;;;1.88;;
25129;SDS011;13308;50.860;13.664;2023-10-13T06:31:05;3.20;;;2.30;;
25129;SDS011;13308;50.860;13.664;2023-10-13T06:33:31;2.13;;;1.90;;
25129;SDS011;13308;50.860;13.664;2023-10-13T06:35:59;3.13;;;2.15;;
25129;SDS011;13308;50.860;13.664;2023-10-13T06:38:26;5.15;;;2.13;;
25129;SDS011;13308;50.860;13.664;2023-10-13T06:40:56;2.33;;;2.03;;
25129;SDS011;13308;50.860;13.664;2023-10-13T06:43:22;2.03;;;1.83;;
25129;SDS011;13308;50.860;13.664;2023-10-13T06:45:48;2.53;;;2.05;;
25129;SDS011;13308;50.860;13.664;2023-10-13T06:48:27;2.42;;;2.22;;
25129;SDS011;13308;50.860;13.664;2023-10-13T06:50:58;2.35;;;1.95;;
25129;SDS011;13308;50.860;13.664;2023-10-13T06:53:29;2.92;;;1.73;;
25129;SDS011;13308;50.860;13.664;2023-10-13T06:55:55;2.40;;;2.00;;
25129;SDS011;13308;50.860;13.664;2023-10-13T06:58:23;2.70;;;1.95;;
25129;SDS011;13308;50.860;13.664;2023-10-13T07:00:50;2.38;;;2.00;;
25129;SDS011;13308;50.860;13.664;2023-10-13T07:03:19;2.35;;;1.98;;
25129;SDS011;13308;50.860;13.664;2023-10-13T07:05:44;3.33;;;1.73;;
25129;SDS011;13308;50.860;13.664;2023-10-13T07:08:12;2.05;;;1.80;;
25129;SDS011;13308;50.860;13.664;2023-10-13T07:10:49;2.97;;;1.60;;
25129;SDS011;13308;50.860;13.664;2023-10-13T07:13:33;2.70;;;1.83;;
25129;SDS011;13308;50.860;13.664;2023-10-13T07:16:03;1.40;;;1.30;;
25129;SDS011;13308;50.860;13.664;2023-10-13T07:18:37;1.80;;;1.58;;
25129;SDS011;13308;50.860;13.664;2023-10-13T07:21:10;2.20;;;1.52;;
25129;SDS011;13308;50.860;13.664;2023-10-13T07:23:36;1.92;;;1.73;;
25129;SDS011;13308;50.860;13.664;2023-10-13T07:26:02;1.90;;;1.80;;
25129;SDS011;13308;50.860;13.664;2023-10-13T07:28:30;3.33;;;1.67;;
25129;SDS011;13308;50.860;13.664;2023-10-13T07:30:59;1.92;;;1.73;;
25129;SDS011;13308;50.860;13.664;2023-10-13T07:33:24;2.00;;;1.80;;
25129;SDS011;13308;50.860;13.664;2023-10-13T07:36:03;4.18;;;1.88;;
25129;SDS011;13308;50.860;13.664;2023-10-13T07:38:41;1.83;;;1.65;;
25129;SDS011;13308;50.860;13.664;2023-10-13T07:41:08;5.65;;;2.00;;
25129;SDS011;13308;50.860;13.664;2023-10-13T07:43:33;2.35;;;2.15;;
25129;SDS011;13308;50.860;13.664;2023-10-13T07:45:59;1.98;;;1.75;;
25129;SDS011;13308;50.860;13.664;2023-10-13T07:48:31;2.15;;;1.77;;
25129;SDS011;13308;50.860;13.664;2023-10-13T07:51:05;2.08;;;1.88;;
25129;SDS011;13308;50.860;13.664;2023-10-13T07:53:41;2.15;;;1.90;;
25129;SDS011;13308;50.860;13.664;2023-10-13T07:56:08;2.63;;;2.15;;
25129;SDS011;13308;50.860;13.664;2023-10-13T07:58:37;1.98;;;1.77;;
25129;SDS011;13308;50.860;13.664;2023-10-13T08:01:20;2.10;;;1.90;;
25129;SDS011;13308;50.860;13.664;2023-10-13T08:03:46;2.28;;;1.90;;
25129;SDS011;13308;50.860;13.664;2023-10-13T08:06:12;7.03;;;2.00;;
25129;SDS011;13308;50.860;13.664;2023-10-13T08:08:41;2.33;;;2.00;;
25129;SDS011;13308;50.860;13.664;2023-10-13T08:11:12;2.10;;;1.73;;
25129;SDS011;13308;50.860;13.664;2023-10-13T08:16:30;2.13;;;1.92;;
25129;SDS011;13308;50.860;13.664;2023-10-13T08:19:11;2.45;;;2.13;;
25129;SDS011;13308;50.860;13.664;2023-10-13T08:21:40;2.05;;;1.85;;
25129;SDS011;13308;50.860;13.664;2023-10-13T08:24:15;2.40;;;2.17;;
25129;SDS011;13308;50.860;13.664;2023-10-13T08:26:41;4.47;;;2.22;;
25129;SDS011;13308;50.860;13.664;2023-10-13T08:29:25;2.30;;;2.10;;
25129;SDS011;13308;50.860;13.664;2023-10-13T08:31:53;4.63;;;2.17;;
25129;SDS011;13308;50.860;13.664;2023-10-13T08:34:29;6.15;;;2.47;;
25129;SDS011;13308;50.860;13.664;2023-10-13T08:37:06;4.38;;;2.45;;
25129;SDS011;13308;50.860;13.664;2023-10-13T08:39:55;5.35;;;3.17;;
25129;SDS011;13308;50.860;13.664;2023-10-13T08:42:31;2.42;;;2.22;;
25129;SDS011;13308;50.860;13.664;2023-10-13T08:45:13;2.83;;;2.17;;
25129;SDS011;13308;50.860;13.664;2023-10-13T08:47:53;2.63;;;2.25;;
25129;SDS011;13308;50.860;13.664;2023-10-13T08:50:36;2.35;;;2.15;;
25129;SDS011;13308;50.860;13.664;2023-10-13T08:53:18;3.22;;;2.42;;
25129;SDS011;13308;50.860;13.664;2023-10-13T08:56:00;2.22;;;2.03;;
25129;SDS011;13308;50.860;13.664;2023-10-13T08:58:48;3.05;;;2.40;;
25129;SDS011;13308;50.860;13.664;2023-10-13T09:04:11;3.30;;;2.47;;
25129;SDS011;13308;50.860;13.664;2023-10-13T09:06:44;2.72;;;2.17;;
25129;SDS011;13308;50.860;13.664;2023-10-13T09:09:29;5.43;;;2.15;;
25129;SDS011;13308;50.860;13.664;2023-10-13T09:12:12;2.47;;;2.15;;
25129;SDS011;13308;50.860;13.664;2023-10-13T09:14:42;2.90;;;2.17;;
25129;SDS011;13308;50.860;13.664;2023-10-13T09:17:09;5.18;;;2.58;;
25129;SDS011;13308;50.860;13.664;2023-10-13T09:19:58;3.67;;;2.50;;
25129;SDS011;13308;50.860;13.664;2023-10-13T09:22:25;7.63;;;2.53;;
25129;SDS011;13308;50.860;13.664;2023-10-13T09:25:04;3.45;;;2.72;;
25129;SDS011;13308;50.860;13.664;2023-10-13T09:27:31;3.47;;;3.00;;
25129;SDS011;13308;50.860;13.664;2023-10-13T09:30:03;4.72;;;3.10;;
25129;SDS011;13308;50.860;13.664;2023-10-13T09:32:43;4.45;;;2.92;;
25129;SDS011;13308;50.860;13.664;2023-10-13T09:35:15;4.03;;;3.08;;
25129;SDS011;13308;50.860;13.664;2023-10-13T09:37:44;3.30;;;3.00;;
25129;SDS011;13308;50.860;13.664;2023-10-13T09:40:17;5.95;;;3.40;;
25129;SDS011;13308;50.860;13.664;2023-10-13T09:42:58;4.65;;;4.25;;
25129;SDS011;13308;50.860;13.664;2023-10-13T09:45:31;5.13;;;4.47;;
25129;SDS011;13308;50.860;13.664;2023-10-13T09:48:20;4.97;;;3.97;;
25129;SDS011;13308;50.860;13.664;2023-10-13T09:50:51;4.78;;;4.20;;
25129;SDS011;13308;50.860;13.664;2023-10-13T09:53:21;7.07;;;4.05;;
25129;SDS011;13308;50.860;13.664;2023-10-13T09:55:54;7.90;;;4.20;;
25129;SDS011;13308;50.860;13.664;2023-10-13T09:58:36;6.18;;;4.30;;
25129;SDS011;13308;50.860;13.664;2023-10-13T10:01:12;4.00;;;3.65;;
25129;SDS011;13308;50.860;13.664;2023-10-13T10:03:47;8.93;;;4.75;;
25129;SDS011;13308;50.860;13.664;2023-10-13T10:06:33;6.38;;;4.00;;
25129;SDS011;13308;50.860;13.664;2023-10-13T10:09:07;6.32;;;3.83;;
25129;SDS011;13308;50.860;13.664;2023-10-13T10:17:07;6.45;;;4.32;;
25129;SDS011;13308;50.860;13.664;2023-10-13T10:19:45;9.13;;;4.40;;
25129;SDS011;13308;50.860;13.664;2023-10-13T10:22:24;8.07;;;3.90;;
25129;SDS011;13308;50.860;13.664;2023-10-13T10:24:58;4.75;;;4.10;;
25129;SDS011;13308;50.860;13.664;2023-10-13T10:27:27;9.20;;;4.43;;
25129;SDS011;13308;50.860;13.664;2023-10-13T10:29:54;8.20;;;4.70;;
25129;SDS011;13308;50.860;13.664;2023-10-13T10:32:20;6.82;;;3.67;;
25129;SDS011;13308;50.860;13.664;2023-10-13T10:34:46;6.43;;;3.35;;
25129;SDS011;13308;50.860;13.664;2023-10-13T10:37:12;8.73;;;3.53;;
25129;SDS011;13308;50.860;13.664;2023-10-13T10:39:38;7.90;;;3.88;;
25129;SDS011;13308;50.860;13.664;2023-10-13T10:42:14;8.25;;;3.70;;
25129;SDS011;13308;50.860;13.664;2023-10-13T10:44:41;4.68;;;2.92;;
25129;SDS011;13308;50.860;13.664;2023-10-13T10:47:12;4.97;;;3.60;;
25129;SDS011;13308;50.860;13.664;2023-10-13T10:49:59;5.97;;;3.83;;
25129;SDS011;13308;50.860;13.664;2023-10-13T10:52:32;9.48;;;3.83;;
25129;SDS011;13308;50.860;13.664;2023-10-13T10:55:02;7.13;;;3.70;;
25129;SDS011;13308;50.860;13.664;2023-10-13T10:57:31;4.13;;;3.67;;
25129;SDS011;13308;50.860;13.664;2023-10-13T11:00:02;13.07;;;3.90;;
25129;SDS011;13308;50.860;13.664;2023-10-13T11:03:32;8.57;;;4.18;;
25129;SDS011;13308;50.860;13.664;2023-10-13T11:06:03;7.07;;;3.90;;
25129;SDS011;13308;50.860;13.664;2023-10-13T11:08:29;5.22;;;3.83;;
25129;SDS011;13308;50.860;13.664;2023-10-13T11:10:58;5.43;;;3.90;;
25129;SDS011;13308;50.860;13.664;2023-10-13T11:13:26;8.73;;;4.20;;
25129;SDS011;13308;50.860;13.664;2023-10-13T11:15:55;6.28;;;4.45;;
25129;SDS011;13308;50.860;13.664;2023-10-13T11:18:28;7.68;;;3.83;;
25129;SDS011;13308;50.860;13.664;2023-10-13T11:20:59;8.13;;;4.28;;
25129;SDS011;13308;50.860;13.664;2023-10-13T11:23:24;7.78;;;4.13;;
25129;SDS011;13308;50.860;13.664;2023-10-13T11:25:56;9.43;;;4.50;;
25129;SDS011;13308;50.860;13.664;2023-10-13T11:28:24;8.50;;;4.43;;
25129;SDS011;13308;50.860;13.664;2023-10-13T11:30:53;9.10;;;4.40;;
25129;SDS011;13308;50.860;13.664;2023-10-13T11:33:25;8.63;;;4.07;;
25129;SDS011;13308;50.860;13.664;2023-10-13T11:35:57;8.73;;;4.90;;
25129;SDS011;13308;50.860;13.664;2023-10-13T11:38:30;12.73;;;4.15;;
25129;SDS011;13308;50.860;13.664;2023-10-13T11:41:05;11.27;;;3.80;;
25129;SDS011;13308;50.860;13.664;2023-10-13T11:43:35;6.05;;;3.95;;
25129;SDS011;13308;50.860;13.664;2023-10-13T11:46:07;7.00;;;3.50;;
25129;SDS011;13308;50.860;13.664;2023-10-13T11:48:33;11.73;;;3.83;;
25129;SDS011;13308;50.860;13.664;2023-10-13T11:51:00;7.68;;;4.30;;
25129;SDS011;13308;50.860;13.664;2023-10-13T11:53:30;8.63;;;3.90;;
25129;SDS011;13308;50.860;13.664;2023-10-13T11:55:55;13.85;;;3.90;;
25129;SDS011;13308;50.860;13.664;2023-10-13T11:58:21;7.47;;;4.25;;
25129;SDS011;13308;50.860;13.664;2023-10-13T12:00:46;6.28;;;3.40;;
25129;SDS011;13308;50.860;13.664;2023-10-13T12:03:30;9.88;;;4.20;;
25129;SDS011;13308;50.860;13.664;2023-10-13T12:06:14;9.50;;;4.55;;
25129;SDS011;13308;50.860;13.664;2023-10-13T12:09:00;9.15;;;3.65;;
25129;SDS011;13308;50.860;13.664;2023-10-13T12:11:44;14.02;;;4.63;;
25129;SDS011;13308;50.860;13.664;2023-10-13T12:14:10;5.38;;;3.72;;
25129;SDS011;13308;50.860;13.664;2023-10-13T12:16:42;6.22;;;4.22;;
25129;SDS011;13308;50.860;13.664;2023-10-13T12:19:16;6.50;;;3.80;;
25129;SDS011;13308;50.860;13.664;2023-10-13T12:21:42;8.63;;;3.75;;
25129;SDS011;13308;50.860;13.664;2023-10-13T12:24:12;12.48;;;4.28;;
25129;SDS011;13308;50.860;13.664;2023-10-13T12:26:48;11.32;;;4.47;;
25129;SDS011;13308;50.860;13.664;2023-10-13T12:29:20;4.97;;;3.65;;
25129;SDS011;13308;50.860;13.664;2023-10-13T12:31:48;6.53;;;3.97;;
25129;SDS011;13308;50.860;13.664;2023-10-13T12:34:26;9.10;;;3.88;;
25129;SDS011;13308;50.860;13.664;2023-10-13T12:37:11;6.25;;;4.32;;
25129;SDS011;13308;50.860;13.664;2023-10-13T12:39:56;11.52;;;5.10;;
25129;SDS011;13308;50.860;13.664;2023-10-13T12:42:40;6.10;;;4.43;;
25129;SDS011;13308;50.860;13.664;2023-10-13T12:45:24;6.05;;;4.35;;
25129;SDS011;13308;50.860;13.664;2023-10-13T12:48:07;8.65;;;4.32;;
25129;SDS011;13308;50.860;13.664;2023-10-13T12:50:51;7.20;;;4.43;;
25129;SDS011;13308;50.860;13.664;2023-10-13T12:53:32;10.45;;;4.72;;
25129;SDS011;13308;50.860;13.664;2023-10-13T12:55:58;7.95;;;5.43;;
25129;SDS011;13308;50.860;13.664;2023-10-13T12:58:23;7.15;;;4.15;;
25129;SDS011;13308;50.860;13.664;2023-10-13T13:00:52;9.82;;;3.70;;
25129;SDS011;13308;50.860;13.664;2023-10-13T13:03:26;4.20;;;3.80;;
25129;SDS011;13308;50.860;13.664;2023-10-13T13:05:54;7.72;;;3.80;;
25129;SDS011;13308;50.860;13.664;2023-10-13T13:08:21;7.13;;;3.88;;
25129;SDS011;13308;50.860;13.664;2023-10-13T13:10:47;6.35;;;4.07;;
25129;SDS011;13308;50.860;13.664;2023-10-13T13:13:13;6.15;;;3.58;;
25129;SDS011;13308;50.860;13.664;2023-10-13T13:15:41;9.88;;;3.90;;
25129;SDS011;13308;50.860;13.664;2023-10-13T13:18:07;13.60;;;4.15;;
25129;SDS011;13308;50.860;13.664;2023-10-13T13:20:37;8.00;;;4.05;;
25129;SDS011;13308;50.860;13.664;2023-10-13T13:23:08;7.28;;;4.07;;
25129;SDS011;13308;50.860;13.664;2023-10-13T13:25:37;6.82;;;4.35;;
25129;SDS011;13308;50.860;13.664;2023-10-13T13:28:07;9.40;;;4.97;;
25129;SDS011;13308;50.860;13.664;2023-10-13T13:30:35;14.18;;;4.70;;
25129;SDS011;13308;50.860;13.664;2023-10-13T13:33:02;7.45;;;4.45;;
25129;SDS011;13308;50.860;13.664;2023-10-13T13:35:38;10.05;;;4.75;;
25129;SDS011;13308;50.860;13.664;2023-10-13T13:38:03;13.35;;;4.75;;
25129;SDS011;13308;50.860;13.664;2023-10-13T13:40:38;10.15;;;4.63;;
25129;SDS011;13308;50.860;13.664;2023-10-13T13:43:04;5.63;;;4.25;;
25129;SDS011;13308;50.860;13.664;2023-10-13T13:45:29;7.88;;;4.63;;
25129;SDS011;13308;50.860;13.664;2023-10-13T13:47:57;8.70;;;4.20;;
25129;SDS011;13308;50.860;13.664;2023-10-13T13:50:23;10.15;;;5.15;;
25129;SDS011;13308;50.860;13.664;2023-10-13T13:52:52;10.98;;;4.70;;
25129;SDS011;13308;50.860;13.664;2023-10-13T13:55:21;6.10;;;4.45;;
25129;SDS011;13308;50.860;13.664;2023-10-13T13:57:47;10.57;;;4.45;;
25129;SDS011;13308;50.860;13.664;2023-10-13T14:00:15;9.73;;;4.35;;
25129;SDS011;13308;50.860;13.664;2023-10-13T14:02:48;8.15;;;4.13;;
25129;SDS011;13308;50.860;13.664;2023-10-13T14:05:14;10.77;;;4.70;;
25129;SDS011;13308;50.860;13.664;2023-10-13T14:07:42;7.32;;;4.05;;
25129;SDS011;13308;50.860;13.664;2023-10-13T14:10:08;8.80;;;4.55;;
25129;SDS011;13308;50.860;13.664;2023-10-13T14:12:41;9.82;;;4.38;;
25129;SDS011;13308;50.860;13.664;2023-10-13T14:15:07;14.95;;;4.70;;
25129;SDS011;13308;50.860;13.664;2023-10-13T14:17:48;9.35;;;4.60;;
25129;SDS011;13308;50.860;13.664;2023-10-13T14:20:14;8.27;;;4.93;;
25129;SDS011;13308;50.860;13.664;2023-10-13T14:22:52;7.28;;;4.50;;
25129;SDS011;13308;50.860;13.664;2023-10-13T14:25:17;7.75;;;4.95;;
25129;SDS011;13308;50.860;13.664;2023-10-13T14:27:42;5.45;;;4.53;;
25129;SDS011;13308;50.860;13.664;2023-10-13T14:30:08;7.40;;;5.38;;
25129;SDS011;13308;50.860;13.664;2023-10-13T14:32:33;6.43;;;4.53;;
25129;SDS011;13308;50.860;13.664;2023-10-13T14:35:05;10.93;;;4.15;;
25129;SDS011;13308;50.860;13.664;2023-10-13T14:37:40;7.40;;;5.25;;
25129;SDS011;13308;50.860;13.664;2023-10-13T14:40:07;12.38;;;5.25;;
25129;SDS011;13308;50.860;13.664;2023-10-13T14:42:37;7.22;;;4.68;;
25129;SDS011;13308;50.860;13.664;2023-10-13T14:45:06;9.55;;;5.07;;
25129;SDS011;13308;50.860;13.664;2023-10-13T14:47:38;8.50;;;4.63;;
25129;SDS011;13308;50.860;13.664;2023-10-13T14:50:06;7.38;;;4.65;;
25129;SDS011;13308;50.860;13.664;2023-10-13T14:52:32;6.82;;;4.85;;
25129;SDS011;13308;50.860;13.664;2023-10-13T14:54:57;11.38;;;4.63;;
25129;SDS011;13308;50.860;13.664;2023-10-13T14:57:23;16.30;;;5.55;;
25129;SDS011;13308;50.860;13.664;2023-10-13T14:59:55;9.93;;;4.80;;
25129;SDS011;13308;50.860;13.664;2023-10-13T15:02:22;10.80;;;4.65;;
25129;SDS011;13308;50.860;13.664;2023-10-13T15:04:48;8.85;;;4.78;;
25129;SDS011;13308;50.860;13.664;2023-10-13T15:07:14;7.45;;;4.28;;
25129;SDS011;13308;50.860;13.664;2023-10-13T15:09:40;7.13;;;4.53;;
25129;SDS011;13308;50.860;13.664;2023-10-13T15:12:08;14.98;;;4.53;;
25129;SDS011;13308;50.860;13.664;2023-10-13T15:14:39;8.10;;;4.32;;
25129;SDS011;13308;50.860;13.664;2023-10-13T15:17:09;11.10;;;5.32;;
25129;SDS011;13308;50.860;13.664;2023-10-13T15:19:35;11.77;;;4.72;;
25129;SDS011;13308;50.860;13.664;2023-10-13T15:22:04;6.45;;;4.97;;
25129;SDS011;13308;50.860;13.664;2023-10-13T15:24:32;7.80;;;4.70;;
25129;SDS011;13308;50.860;13.664;2023-10-13T15:27:01;7.75;;;4.43;;
25129;SDS011;13308;50.860;13.664;2023-10-13T15:29:27;7.15;;;4.25;;
25129;SDS011;13308;50.860;13.664;2023-10-13T15:32:00;7.03;;;4.43;;
25129;SDS011;13308;50.860;13.664;2023-10-13T15:34:26;7.68;;;4.22;;
25129;SDS011;13308;50.860;13.664;2023-10-13T15:36:52;13.48;;;4.25;;
25129;SDS011;13308;50.860;13.664;2023-10-13T15:39:19;8.57;;;4.28;;
25129;SDS011;13308;50.860;13.664;2023-10-13T15:41:49;11.73;;;4.70;;
25129;SDS011;13308;50.860;13.664;2023-10-13T15:44:18;16.80;;;5.00;;
25129;SDS011;13308;50.860;13.664;2023-10-13T15:46:49;8.68;;;4.10;;
25129;SDS011;13308;50.860;13.664;2023-10-13T15:49:17;7.63;;;4.20;;
25129;SDS011;13308;50.860;13.664;2023-10-13T15:51:43;5.25;;;4.03;;
25129;SDS011;13308;50.860;13.664;2023-10-13T15:54:08;13.93;;;4.38;;
25129;SDS011;13308;50.860;13.664;2023-10-13T15:59:10;7.35;;;4.18;;
25129;SDS011;13308;50.860;13.664;2023-10-13T16:01:35;7.88;;;4.32;;
25129;SDS011;13308;50.860;13.664;2023-10-13T16:04:03;7.70;;;4.82;;
25129;SDS011;13308;50.860;13.664;2023-10-13T16:06:36;7.63;;;4.18;;
25129;SDS011;13308;50.860;13.664;2023-10-13T16:09:02;9.50;;;4.55;;
25129;SDS011;13308;50.860;13.664;2023-10-13T16:11:28;7.57;;;4.03;;
25129;SDS011;13308;50.860;13.664;2023-10-13T16:13:53;6.55;;;4.05;;
25129;SDS011;13308;50.860;13.664;2023-10-13T16:16:22;13.25;;;4.50;;
25129;SDS011;13308;50.860;13.664;2023-10-13T16:18:51;7.00;;;4.53;;
25129;SDS011;13308;50.860;13.664;2023-10-13T16:21:18;6.63;;;4.13;;
25129;SDS011;13308;50.860;13.664;2023-10-13T16:23:45;7.07;;;4.70;;
25129;SDS011;13308;50.860;13.664;2023-10-13T16:26:16;7.30;;;4.35;;
25129;SDS011;13308;50.860;13.664;2023-10-13T16:28:46;4.95;;;4.07;;
25129;SDS011;13308;50.860;13.664;2023-10-13T16:31:19;5.80;;;4.25;;
25129;SDS011;13308;50.860;13.664;2023-10-13T16:33:47;8.43;;;4.60;;
25129;SDS011;13308;50.860;13.664;2023-10-13T16:36:13;8.48;;;4.80;;
25129;SDS011;13308;50.860;13.664;2023-10-13T16:38:38;7.72;;;4.63;;
25129;SDS011;13308;50.860;13.664;2023-10-13T16:41:05;7.35;;;4.85;;
25129;SDS011;13308;50.860;13.664;2023-10-13T16:43:37;8.18;;;4.30;;
25129;SDS011;13308;50.860;13.664;2023-10-13T16:46:03;12.98;;;4.93;;
25129;SDS011;13308;50.860;13.664;2023-10-13T16:48:34;5.10;;;4.45;;
25129;SDS011;13308;50.860;13.664;2023-10-13T16:50:59;7.80;;;4.38;;
25129;SDS011;13308;50.860;13.664;2023-10-13T16:53:25;10.43;;;4.95;;
25129;SDS011;13308;50.860;13.664;2023-10-13T16:55:51;11.07;;;4.35;;
25129;SDS011;13308;50.860;13.664;2023-10-13T16:58:16;7.07;;;4.22;;
25129;SDS011;13308;50.860;13.664;2023-10-13T17:00:42;10.32;;;4.10;;
25129;SDS011;13308;50.860;13.664;2023-10-13T17:03:08;9.50;;;4.40;;
25129;SDS011;13308;50.860;13.664;2023-10-13T17:05:43;8.98;;;5.00;;
25129;SDS011;13308;50.860;13.664;2023-10-13T17:08:14;8.15;;;4.65;;
25129;SDS011;13308;50.860;13.664;2023-10-13T17:10:40;10.25;;;4.53;;
25129;SDS011;13308;50.860;13.664;2023-10-13T17:13:06;10.48;;;5.03;;
25129;SDS011;13308;50.860;13.664;2023-10-13T17:15:32;7.63;;;5.07;;
25129;SDS011;13308;50.860;13.664;2023-10-13T17:18:01;6.68;;;5.35;;
25129;SDS011;13308;50.860;13.664;2023-10-13T17:20:37;6.43;;;5.40;;
25129;SDS011;13308;50.860;13.664;2023-10-13T17:23:04;9.15;;;5.05;;
25129;SDS011;13308;50.860;13.664;2023-10-13T17:25:34;11.68;;;5.50;;
25129;SDS011;13308;50.860;13.664;2023-10-13T17:28:00;12.75;;;4.82;;
25129;SDS011;13308;50.860;13.664;2023-10-13T17:30:41;9.63;;;4.85;;
25129;SDS011;13308;50.860;13.664;2023-10-13T17:33:09;11.80;;;4.00;;
25129;SDS011;13308;50.860;13.664;2023-10-13T17:35:39;8.82;;;4.43;;
25129;SDS011;13308;50.860;13.664;2023-10-13T17:38:05;5.15;;;4.35;;
25129;SDS011;13308;50.860;13.664;2023-10-13T17:40:30;10.60;;;4.10;;
25129;SDS011;13308;50.860;13.664;2023-10-13T17:42:55;11.90;;;4.13;;
25129;SDS011;13308;50.860;13.664;2023-10-13T17:45:21;8.05;;;4.43;;
25129;SDS011;13308;50.860;13.664;2023-10-13T17:47:47;7.50;;;4.32;;
25129;SDS011;13308;50.860;13.664;2023-10-13T17:50:12;8.05;;;4.78;;
25129;SDS011;13308;50.860;13.664;2023-10-13T17:52:41;9.55;;;4.28;;
25129;SDS011;13308;50.860;13.664;2023-10-13T17:55:08;5.47;;;4.72;;
25129;SDS011;13308;50.860;13.664;2023-10-13T17:57:35;9.85;;;4.63;;
25129;SDS011;13308;50.860;13.664;2023-10-13T18:00:01;7.18;;;3.97;;
25129;SDS011;13308;50.860;13.664;2023-10-13T18:02:38;10.32;;;4.30;;
25129;SDS011;13308;50.860;13.664;2023-10-13T18:05:10;7.35;;;4.53;;
25129;SDS011;13308;50.860;13.664;2023-10-13T18:07:39;6.22;;;4.18;;
25129;SDS011;13308;50.860;13.664;2023-10-13T18:10:10;4.85;;;3.50;;
